sensor_id;sensor_type;location;lat;lon;timestamp;pressure;altitude;pressure_sealevel;temperature;humidity
71059;BME280;70265;47.576;19.270;2023-07-02T00:00:25;97877.56;;;18.99;100.00
71059;BME280;70265;47.576;19.270;2023-07-02T00:01:26;97884.03;;;19.03;100.00
71059;BME280;70265;47.576;19.270;2023-07-02T00:02:30;97878.25;;;19.06;100.00
71059;BME280;70265;47.576;19.270;2023-07-02T00:03:31;97878.25;;;19.06;100.00
71059;BME280;70265;47.576;19.270;2023-07-02T00:04:35;97880.47;;;19.09;100.00
71059;BME280;70265;47.576;19.270;2023-07-02T00:05:38;97878.03;;;19.07;100.00
71059;BME280;70265;47.576;19.270;2023-07-02T00:06:42;97888.22;;;19.10;100.00
71059;BME280;70265;47.576;19.270;2023-07-02T00:07:43;97875.59;;;19.06;100.00
71059;BME280;70265;47.576;19.270;2023-07-02T00:08:47;97866.38;;;18.97;100.00
71059;BME280;70265;47.576;19.270;2023-07-02T00:09:48;97863.38;;;19.05;100.00
71059;BME280;70265;47.576;19.270;2023-07-02T00:10:55;97864.06;;;19.00;100.00
71059;BME280;70265;47.576;19.270;2023-07-02T00:11:56;97880.34;;;19.15;100.00
71059;BME280;70265;47.576;19.270;2023-07-02T00:13:00;97881.97;;;19.16;100.00
71059;BME280;70265;47.576;19.270;2023-07-02T00:14:01;97880.69;;;19.19;100.00
71059;BME280;70265;47.576;19.270;2023-07-02T00:15:06;97870.41;;;19.11;100.00
71059;BME280;70265;47.576;19.270;2023-07-02T00:16:08;97855.84;;;19.02;100.00
71059;BME280;70265;47.576;19.270;2023-07-02T00:17:15;97882.22;;;19.15;100.00
71059;BME280;70265;47.576;19.270;2023-07-02T00:18:16;97878.16;;;19.12;100.00
71059;BME280;70265;47.576;19.270;2023-07-02T00:19:20;97866.59;;;19.07;100.00
71059;BME280;70265;47.576;19.270;2023-07-02T00:20:21;97883.72;;;19.11;100.00
71059;BME280;70265;47.576;19.270;2023-07-02T00:21:25;97882.91;;;19.10;100.00
71059;BME280;70265;47.576;19.270;2023-07-02T00:22:28;97877.38;;;19.12;100.00
71059;BME280;70265;47.576;19.270;2023-07-02T00:23:37;97886.38;;;19.11;100.00
71059;BME280;70265;47.576;19.270;2023-07-02T00:24:38;97884.75;;;19.10;100.00
71059;BME280;70265;47.576;19.270;2023-07-02T00:25:41;97877.59;;;19.10;100.00
71059;BME280;70265;47.576;19.270;2023-07-02T00:26:45;97881.50;;;19.08;100.00
71059;BME280;70265;47.576;19.270;2023-07-02T00:27:49;97879.06;;;19.06;100.00
71059;BME280;70265;47.576;19.270;2023-07-02T00:28:52;97881.16;;;19.04;100.00
71059;BME280;70265;47.576;19.270;2023-07-02T00:29:57;97879.31;;;19.05;100.00
71059;BME280;70265;47.576;19.270;2023-07-02T00:30:58;97881.38;;;19.03;100.00
71059;BME280;70265;47.576;19.270;2023-07-02T00:32:03;97881.59;;;18.90;100.00
71059;BME280;70265;47.576;19.270;2023-07-02T00:33:05;97883.69;;;18.88;100.00
71059;BME280;70265;47.576;19.270;2023-07-02T00:34:09;97876.75;;;18.87;100.00
71059;BME280;70265;47.576;19.270;2023-07-02T00:35:10;97889.47;;;18.85;100.00
71059;BME280;70265;47.576;19.270;2023-07-02T00:36:14;97868.66;;;18.81;100.00
71059;BME280;70265;47.576;19.270;2023-07-02T00:37:15;97871.66;;;18.85;100.00
71059;BME280;70265;47.576;19.270;2023-07-02T00:38:19;97879.16;;;18.88;100.00
71059;BME280;70265;47.576;19.270;2023-07-02T00:39:20;97873.84;;;18.88;100.00
71059;BME280;70265;47.576;19.270;2023-07-02T00:40:26;97879.75;;;18.90;100.00
71059;BME280;70265;47.576;19.270;2023-07-02T00:41:28;97876.66;;;18.93;100.00
71059;BME280;70265;47.576;19.270;2023-07-02T00:42:35;97868.09;;;18.91;100.00
71059;BME280;70265;47.576;19.270;2023-07-02T00:43:37;97876.19;;;18.96;100.00
71059;BME280;70265;47.576;19.270;2023-07-02T00:44:44;97869.25;;;18.95;100.00
71059;BME280;70265;47.576;19.270;2023-07-02T00:45:46;97881.03;;;18.99;100.00
71059;BME280;70265;47.576;19.270;2023-07-02T00:46:50;97876.53;;;19.00;100.00
71059;BME280;70265;47.576;19.270;2023-07-02T00:47:53;97877.09;;;19.02;100.00
71059;BME280;70265;47.576;19.270;2023-07-02T00:48:58;97874.91;;;18.99;100.00
71059;BME280;70265;47.576;19.270;2023-07-02T00:50:01;97873.88;;;19.00;100.00
71059;BME280;70265;47.576;19.270;2023-07-02T00:51:10;97874.69;;;19.00;100.00
71059;BME280;70265;47.576;19.270;2023-07-02T00:52:12;97872.59;;;19.02;100.00
71059;BME280;70265;47.576;19.270;2023-07-02T00:53:16;97872.03;;;19.00;100.00
71059;BME280;70265;47.576;19.270;2023-07-02T00:54:18;97869.25;;;18.95;100.00
71059;BME280;70265;47.576;19.270;2023-07-02T00:55:22;97870.75;;;19.03;100.00
71059;BME280;70265;47.576;19.270;2023-07-02T00:56:24;97858.25;;;18.92;100.00
71059;BME280;70265;47.576;19.270;2023-07-02T00:57:28;97868.56;;;19.00;100.00
71059;BME280;70265;47.576;19.270;2023-07-02T00:58:34;97879.31;;;19.05;100.00
71059;BME280;70265;47.576;19.270;2023-07-02T00:59:41;97860.13;;;19.03;100.00
71059;BME280;70265;47.576;19.270;2023-07-02T01:00:42;97869.72;;;19.15;100.00
71059;BME280;70265;47.576;19.270;2023-07-02T01:01:46;97877.34;;;19.23;100.00
71059;BME280;70265;47.576;19.270;2023-07-02T01:02:56;97880.47;;;19.32;100.00
71059;BME280;70265;47.576;19.270;2023-07-02T01:04:02;97877.91;;;19.37;100.00
71059;BME280;70265;47.576;19.270;2023-07-02T01:05:06;97875.84;;;19.39;100.00
71059;BME280;70265;47.576;19.270;2023-07-02T01:06:09;97874.59;;;19.42;100.00
71059;BME280;70265;47.576;19.270;2023-07-02T01:07:11;97878.84;;;19.43;100.00
71059;BME280;70265;47.576;19.270;2023-07-02T01:08:15;97868.56;;;19.46;100.00
71059;BME280;70265;47.576;19.270;2023-07-02T01:09:16;97878.78;;;19.49;100.00
71059;BME280;70265;47.576;19.270;2023-07-02T01:10:21;97872.97;;;19.52;100.00
71059;BME280;70265;47.576;19.270;2023-07-02T01:11:25;97879.69;;;19.55;100.00
71059;BME280;70265;47.576;19.270;2023-07-02T01:12:30;97882.69;;;19.58;100.00
71059;BME280;70265;47.576;19.270;2023-07-02T01:13:34;97876.31;;;19.59;100.00
71059;BME280;70265;47.576;19.270;2023-07-02T01:14:40;97882.00;;;19.63;100.00
71059;BME280;70265;47.576;19.270;2023-07-02T01:15:42;97884.41;;;19.64;100.00
71059;BME280;70265;47.576;19.270;2023-07-02T01:16:48;97874.31;;;19.66;100.00
71059;BME280;70265;47.576;19.270;2023-07-02T01:17:51;97878.03;;;19.65;100.00
71059;BME280;70265;47.576;19.270;2023-07-02T01:18:57;97880.22;;;19.68;100.00
71059;BME280;70265;47.576;19.270;2023-07-02T01:20:01;97876.19;;;19.66;100.00
71059;BME280;70265;47.576;19.270;2023-07-02T01:21:08;97871.34;;;19.63;100.00
71059;BME280;70265;47.576;19.270;2023-07-02T01:22:10;97883.94;;;19.67;100.00
71059;BME280;70265;47.576;19.270;2023-07-02T01:23:15;97884.75;;;19.68;100.00
71059;BME280;70265;47.576;19.270;2023-07-02T01:24:18;97876.31;;;19.59;100.00
71059;BME280;70265;47.576;19.270;2023-07-02T01:25:22;97874.22;;;19.61;100.00
71059;BME280;70265;47.576;19.270;2023-07-02T01:26:28;97878.25;;;19.64;100.00
71059;BME280;70265;47.576;19.270;2023-07-02T01:27:34;97878.03;;;19.65;100.00
71059;BME280;70265;47.576;19.270;2023-07-02T01:28:36;97877.56;;;19.68;99.44
71059;BME280;70265;47.576;19.270;2023-07-02T01:29:41;97879.97;;;19.70;99.68
71059;BME280;70265;47.576;19.270;2023-07-02T01:30:43;97884.53;;;19.69;99.60
71059;BME280;70265;47.576;19.270;2023-07-02T01:31:47;97876.28;;;19.71;99.88
71059;BME280;70265;47.576;19.270;2023-07-02T01:32:49;97880.78;;;19.70;99.69
71059;BME280;70265;47.576;19.270;2023-07-02T01:33:52;97878.59;;;19.67;99.66
71059;BME280;70265;47.576;19.270;2023-07-02T01:35:00;97882.63;;;19.70;99.28
71059;BME280;70265;47.576;19.270;2023-07-02T01:36:07;97876.53;;;19.69;99.13
71059;BME280;70265;47.576;19.270;2023-07-02T01:37:08;97881.84;;;19.69;99.46
71059;BME280;70265;47.576;19.270;2023-07-02T01:38:12;97884.53;;;19.69;99.36
71059;BME280;70265;47.576;19.270;2023-07-02T01:39:13;97880.78;;;19.70;99.05
71059;BME280;70265;47.576;19.270;2023-07-02T01:40:21;97878.94;;;19.71;98.93
71059;BME280;70265;47.576;19.270;2023-07-02T01:41:22;97877.66;;;19.73;98.93
71059;BME280;70265;47.576;19.270;2023-07-02T01:42:26;97876.88;;;19.73;99.27
71059;BME280;70265;47.576;19.270;2023-07-02T01:43:27;97870.97;;;19.71;99.71
71059;BME280;70265;47.576;19.270;2023-07-02T01:44:31;97876.06;;;19.72;100.00
71059;BME280;70265;47.576;19.270;2023-07-02T01:45:33;97876.75;;;19.68;100.00
71059;BME280;70265;47.576;19.270;2023-07-02T01:46:37;97871.09;;;19.64;100.00
71059;BME280;70265;47.576;19.270;2023-07-02T01:47:39;97876.28;;;19.71;100.00
71059;BME280;70265;47.576;19.270;2023-07-02T01:48:42;97873.66;;;19.59;100.00
71059;BME280;70265;47.576;19.270;2023-07-02T01:49:44;97860.03;;;19.56;100.00
71059;BME280;70265;47.576;19.270;2023-07-02T01:50:50;97879.63;;;19.66;100.00
71059;BME280;70265;47.576;19.270;2023-07-02T01:51:52;97871.09;;;19.64;100.00
71059;BME280;70265;47.576;19.270;2023-07-02T01:53:01;97876.53;;;19.69;99.52
71059;BME280;70265;47.576;19.270;2023-07-02T01:54:02;97883.22;;;19.72;99.25
71059;BME280;70265;47.576;19.270;2023-07-02T01:55:07;97879.75;;;19.71;98.91
71059;BME280;70265;47.576;19.270;2023-07-02T01:56:09;97879.75;;;19.71;98.76
71059;BME280;70265;47.576;19.270;2023-07-02T01:57:13;97875.47;;;19.70;98.49
71059;BME280;70265;47.576;19.270;2023-07-02T01:58:14;97859.56;;;19.59;98.46
71059;BME280;70265;47.576;19.270;2023-07-02T01:59:18;97861.75;;;19.62;98.27
71059;BME280;70265;47.576;19.270;2023-07-02T02:00:19;97874.44;;;19.71;98.21
71059;BME280;70265;47.576;19.270;2023-07-02T02:01:24;97875.47;;;19.70;98.13
71059;BME280;70265;47.576;19.270;2023-07-02T02:02:26;97866.25;;;19.61;98.14
71059;BME280;70265;47.576;19.270;2023-07-02T02:03:29;97875.72;;;19.69;98.17
71059;BME280;70265;47.576;19.270;2023-07-02T02:04:31;97879.41;;;19.68;97.77
71059;BME280;70265;47.576;19.270;2023-07-02T02:05:35;97878.59;;;19.67;97.85
71059;BME280;70265;47.576;19.270;2023-07-02T02:06:39;97885.56;;;19.68;97.91
71059;BME280;70265;47.576;19.270;2023-07-02T02:07:43;97878.03;;;19.65;97.83
71059;BME280;70265;47.576;19.270;2023-07-02T02:08:44;97877.78;;;19.67;97.87
71059;BME280;70265;47.576;19.270;2023-07-02T02:09:48;97876.97;;;19.66;97.73
71059;BME280;70265;47.576;19.270;2023-07-02T02:10:49;97880.69;;;19.65;97.88
71059;BME280;70265;47.576;19.270;2023-07-02T02:11:53;97875.25;;;19.60;97.98
71059;BME280;70265;47.576;19.270;2023-07-02T02:12:54;97880.84;;;19.59;98.01
71059;BME280;70265;47.576;19.270;2023-07-02T02:14:00;97873.06;;;19.57;98.26
71059;BME280;70265;47.576;19.270;2023-07-02T02:15:08;97874.69;;;19.58;98.17
71059;BME280;70265;47.576;19.270;2023-07-02T02:16:14;97860.03;;;19.56;97.75
71059;BME280;70265;47.576;19.270;2023-07-02T02:17:16;97870.41;;;19.57;98.03
71059;BME280;70265;47.576;19.270;2023-07-02T02:18:19;97874.22;;;19.61;97.82
71059;BME280;70265;47.576;19.270;2023-07-02T02:19:21;97869.16;;;19.48;98.67
71059;BME280;70265;47.576;19.270;2023-07-02T02:20:26;97872.25;;;19.57;98.22
71059;BME280;70265;47.576;19.270;2023-07-02T02:21:28;97871.66;;;19.66;97.54
71059;BME280;70265;47.576;19.270;2023-07-02T02:22:35;97865.78;;;19.64;97.40
71059;BME280;70265;47.576;19.270;2023-07-02T02:23:36;97858.13;;;19.68;97.18
71059;BME280;70265;47.576;19.270;2023-07-02T02:24:42;97873.75;;;19.53;97.99
71059;BME280;70265;47.576;19.270;2023-07-02T02:25:43;97870.06;;;19.54;97.70
71059;BME280;70265;47.576;19.270;2023-07-02T02:26:47;97867.06;;;19.50;97.67
71059;BME280;70265;47.576;19.270;2023-07-02T02:27:48;97867.53;;;19.47;97.93
71059;BME280;70265;47.576;19.270;2023-07-02T02:28:52;97865.91;;;19.46;97.92
71059;BME280;70265;47.576;19.270;2023-07-02T02:29:54;97864.78;;;19.42;98.29
71059;BME280;70265;47.576;19.270;2023-07-02T02:31:00;97873.41;;;19.38;98.41
71059;BME280;70265;47.576;19.270;2023-07-02T02:32:03;97861.97;;;19.37;98.34
71059;BME280;70265;47.576;19.270;2023-07-02T02:33:07;97870.53;;;19.39;98.38
71059;BME280;70265;47.576;19.270;2023-07-02T02:34:08;97863.16;;;19.41;98.28
71059;BME280;70265;47.576;19.270;2023-07-02T02:35:12;97869.59;;;19.33;98.43
71059;BME280;70265;47.576;19.270;2023-07-02T02:36:14;97863.25;;;19.23;99.24
71059;BME280;70265;47.576;19.270;2023-07-02T02:37:19;97869.63;;;19.22;99.42
71059;BME280;70265;47.576;19.270;2023-07-02T02:38:25;97865.91;;;19.23;98.90
71059;BME280;70265;47.576;19.270;2023-07-02T02:39:29;97866.38;;;19.20;99.25
71059;BME280;70265;47.576;19.270;2023-07-02T02:40:30;97859.31;;;19.14;99.35
71059;BME280;70265;47.576;19.270;2023-07-02T02:41:35;97859.31;;;19.14;99.06
71059;BME280;70265;47.576;19.270;2023-07-02T02:42:36;97856.75;;;19.19;98.50
71059;BME280;70265;47.576;19.270;2023-07-02T02:43:41;97860.84;;;19.21;99.04
71059;BME280;70265;47.576;19.270;2023-07-02T02:44:43;97851.81;;;19.11;98.70
71059;BME280;70265;47.576;19.270;2023-07-02T02:45:47;97845.69;;;19.10;97.98
71059;BME280;70265;47.576;19.270;2023-07-02T02:46:49;97866.25;;;19.15;97.94
71059;BME280;70265;47.576;19.270;2023-07-02T02:47:53;97851.81;;;19.11;97.92
71059;BME280;70265;47.576;19.270;2023-07-02T02:48:54;97858.38;;;19.20;97.31
71059;BME280;70265;47.576;19.270;2023-07-02T02:49:59;97858.28;;;19.15;97.34
71059;BME280;70265;47.576;19.270;2023-07-02T02:51:00;97852.97;;;19.15;97.16
71059;BME280;70265;47.576;19.270;2023-07-02T02:52:04;97848.22;;;19.05;96.92
71059;BME280;70265;47.576;19.270;2023-07-02T02:53:06;97858.84;;;19.17;96.59
71059;BME280;70265;47.576;19.270;2023-07-02T02:54:12;97857.81;;;19.18;96.40
71059;BME280;70265;47.576;19.270;2023-07-02T02:55:14;97844.66;;;19.11;96.45
71059;BME280;70265;47.576;19.270;2023-07-02T02:56:17;97860.94;;;19.15;96.46
71059;BME280;70265;47.576;19.270;2023-07-02T02:57:18;97859.53;;;19.12;96.49
71059;BME280;70265;47.576;19.270;2023-07-02T02:58:22;97843.25;;;19.09;96.20
71059;BME280;70265;47.576;19.270;2023-07-02T02:59:24;97849.03;;;19.06;96.29
71059;BME280;70265;47.576;19.270;2023-07-02T03:00:29;97859.88;;;19.16;96.26
71059;BME280;70265;47.576;19.270;2023-07-02T03:01:31;97855.63;;;19.15;96.29
71059;BME280;70265;47.576;19.270;2023-07-02T03:02:37;97857.94;;;19.11;96.37
71059;BME280;70265;47.576;19.270;2023-07-02T03:03:39;97860.94;;;19.15;97.28
71059;BME280;70265;47.576;19.270;2023-07-02T03:04:45;97846.72;;;19.09;96.80
71059;BME280;70265;47.576;19.270;2023-07-02T03:05:50;97864.75;;;19.19;96.29
71059;BME280;70265;47.576;19.270;2023-07-02T03:06:51;97860.00;;;19.21;96.22
71059;BME280;70265;47.576;19.270;2023-07-02T03:07:56;97858.28;;;19.15;97.92
71059;BME280;70265;47.576;19.270;2023-07-02T03:08:57;97868.13;;;19.14;97.28
71059;BME280;70265;47.576;19.270;2023-07-02T03:10:05;97858.06;;;19.05;96.98
71059;BME280;70265;47.576;19.270;2023-07-02T03:11:07;97857.59;;;19.08;97.45
71059;BME280;70265;47.576;19.270;2023-07-02T03:12:11;97861.84;;;19.09;96.98
71059;BME280;70265;47.576;19.270;2023-07-02T03:13:18;97861.84;;;19.09;97.39
71059;BME280;70265;47.576;19.270;2023-07-02T03:14:21;97866.38;;;19.08;97.81
71059;BME280;70265;47.576;19.270;2023-07-02T03:15:22;97861.28;;;19.07;97.58
71059;BME280;70265;47.576;19.270;2023-07-02T03:16:26;97863.13;;;19.06;97.37
71059;BME280;70265;47.576;19.270;2023-07-02T03:17:27;97865.56;;;19.08;96.85
71059;BME280;70265;47.576;19.270;2023-07-02T03:18:32;97857.25;;;19.04;96.44
71059;BME280;70265;47.576;19.270;2023-07-02T03:19:35;97861.06;;;19.08;96.28
71059;BME280;70265;47.576;19.270;2023-07-02T03:20:39;97855.75;;;19.08;96.37
71059;BME280;70265;47.576;19.270;2023-07-02T03:21:40;97856.66;;;19.02;96.23
71059;BME280;70265;47.576;19.270;2023-07-02T03:22:44;97866.47;;;19.02;96.25
71059;BME280;70265;47.576;19.270;2023-07-02T03:23:45;97856.91;;;19.01;96.38
71059;BME280;70265;47.576;19.270;2023-07-02T03:24:49;97863.59;;;19.03;96.58
71059;BME280;70265;47.576;19.270;2023-07-02T03:25:55;97860.47;;;19.06;96.69
71059;BME280;70265;47.576;19.270;2023-07-02T03:26:59;97858.06;;;19.05;95.87
71059;BME280;70265;47.576;19.270;2023-07-02T03:28:00;97864.75;;;19.07;95.89
71059;BME280;70265;47.576;19.270;2023-07-02T03:29:04;97854.69;;;18.98;97.31
71059;BME280;70265;47.576;19.270;2023-07-02T03:30:07;97864.16;;;19.05;97.23
71059;BME280;70265;47.576;19.270;2023-07-02T03:31:11;97861.50;;;19.05;97.89
71059;BME280;70265;47.576;19.270;2023-07-02T03:32:12;97870.53;;;19.04;98.11
71059;BME280;70265;47.576;19.270;2023-07-02T03:33:16;97868.22;;;19.08;97.57
71059;BME280;70265;47.576;19.270;2023-07-02T03:34:17;97867.63;;;19.06;98.27
71059;BME280;70265;47.576;19.270;2023-07-02T03:35:23;97868.34;;;19.01;99.13
71059;BME280;70265;47.576;19.270;2023-07-02T03:36:24;97870.41;;;18.99;99.10
71059;BME280;70265;47.576;19.270;2023-07-02T03:37:27;97869.13;;;19.02;99.03
71059;BME280;70265;47.576;19.270;2023-07-02T03:38:29;97870.75;;;19.03;99.10
71059;BME280;70265;47.576;19.270;2023-07-02T03:39:32;97867.06;;;19.04;99.26
71059;BME280;70265;47.576;19.270;2023-07-02T03:40:33;97868.34;;;19.01;99.06
71059;BME280;70265;47.576;19.270;2023-07-02T03:41:40;97873.66;;;19.01;99.75
71059;BME280;70265;47.576;19.270;2023-07-02T03:42:42;97869.59;;;18.99;100.00
71059;BME280;70265;47.576;19.270;2023-07-02T03:43:46;97871.22;;;19.00;100.00
71059;BME280;70265;47.576;19.270;2023-07-02T03:44:48;97873.88;;;19.00;100.00
71059;BME280;70265;47.576;19.270;2023-07-02T03:45:52;97873.31;;;18.98;100.00
71059;BME280;70265;47.576;19.270;2023-07-02T03:46:54;97865.56;;;18.96;100.00
71059;BME280;70265;47.576;19.270;2023-07-02T03:48:00;97880.09;;;19.05;100.00
71059;BME280;70265;47.576;19.270;2023-07-02T03:49:02;97877.69;;;19.04;100.00
71059;BME280;70265;47.576;19.270;2023-07-02T03:50:08;97879.06;;;19.06;100.00
71059;BME280;70265;47.576;19.270;2023-07-02T03:51:13;97886.59;;;19.09;99.82
71059;BME280;70265;47.576;19.270;2023-07-02T03:52:18;97881.28;;;19.09;100.00
71059;BME280;70265;47.576;19.270;2023-07-02T03:53:20;97879.56;;;19.15;99.48
71059;BME280;70265;47.576;19.270;2023-07-02T03:54:24;97886.25;;;19.17;99.53
71059;BME280;70265;47.576;19.270;2023-07-02T03:55:25;97890.53;;;19.18;100.00
71059;BME280;70265;47.576;19.270;2023-07-02T03:56:30;97884.50;;;19.23;100.00
71059;BME280;70265;47.576;19.270;2023-07-02T03:57:35;97884.03;;;19.26;99.75
71059;BME280;70265;47.576;19.270;2023-07-02T03:58:41;97880.59;;;19.25;99.61
71059;BME280;70265;47.576;19.270;2023-07-02T03:59:42;97888.47;;;19.32;99.74
71059;BME280;70265;47.576;19.270;2023-07-02T04:00:46;97894.13;;;19.36;98.52
71059;BME280;70265;47.576;19.270;2023-07-02T04:01:50;97880.03;;;19.35;97.87
71059;BME280;70265;47.576;19.270;2023-07-02T04:02:54;97895.06;;;19.41;97.76
71059;BME280;70265;47.576;19.270;2023-07-02T04:03:56;97896.69;;;19.42;98.05
71059;BME280;70265;47.576;19.270;2023-07-02T04:05:01;97889.28;;;19.44;97.95
71059;BME280;70265;47.576;19.270;2023-07-02T04:06:03;97889.84;;;19.46;99.53
71059;BME280;70265;47.576;19.270;2023-07-02T04:07:08;97893.56;;;19.45;99.77
71059;BME280;70265;47.576;19.270;2023-07-02T04:08:10;97889.97;;;19.51;98.79
71059;BME280;70265;47.576;19.270;2023-07-02T04:09:13;97895.84;;;19.53;98.56
71059;BME280;70265;47.576;19.270;2023-07-02T04:10:14;97895.97;;;19.58;100.00
71059;BME280;70265;47.576;19.270;2023-07-02T04:11:19;97900.50;;;19.58;99.57
71059;BME280;70265;47.576;19.270;2023-07-02T04:12:20;97899.19;;;19.60;98.94
71059;BME280;70265;47.576;19.270;2023-07-02T04:13:26;97903.72;;;19.60;97.89
71059;BME280;70265;47.576;19.270;2023-07-02T04:14:27;97901.19;;;19.65;97.78
71059;BME280;70265;47.576;19.270;2023-07-02T04:15:31;97896.19;;;19.68;97.54
71059;BME280;70265;47.576;19.270;2023-07-02T04:16:32;97901.53;;;19.68;97.29
71059;BME280;70265;47.576;19.270;2023-07-02T04:17:38;97899.66;;;19.69;97.23
71059;BME280;70265;47.576;19.270;2023-07-02T04:18:41;97900.00;;;19.72;97.01
71059;BME280;70265;47.576;19.270;2023-07-02T04:19:45;97887.41;;;19.56;96.99
71059;BME280;70265;47.576;19.270;2023-07-02T04:20:46;97901.53;;;19.68;96.63
71059;BME280;70265;47.576;19.270;2023-07-02T04:21:50;97906.94;;;19.73;96.66
71059;BME280;70265;47.576;19.270;2023-07-02T04:22:51;97908.56;;;19.74;96.70
71059;BME280;70265;47.576;19.270;2023-07-02T04:23:55;97905.91;;;19.74;96.47
71059;BME280;70265;47.576;19.270;2023-07-02T04:24:56;97905.91;;;19.74;96.62
71059;BME280;70265;47.576;19.270;2023-07-02T04:26:00;97909.94;;;19.77;96.52
71059;BME280;70265;47.576;19.270;2023-07-02T04:27:01;97914.78;;;19.80;96.82
71059;BME280;70265;47.576;19.270;2023-07-02T04:28:05;97908.69;;;19.79;96.63
71059;BME280;70265;47.576;19.270;2023-07-02T04:29:08;97910.88;;;19.83;96.24
71059;BME280;70265;47.576;19.270;2023-07-02T04:30:13;97920.00;;;19.87;96.86
71059;BME280;70265;47.576;19.270;2023-07-02T04:31:15;97911.44;;;19.85;95.97
71059;BME280;70265;47.576;19.270;2023-07-02T04:32:19;97906.09;;;19.85;96.11
71059;BME280;70265;47.576;19.270;2023-07-02T04:33:21;97919.75;;;19.88;95.82
71059;BME280;70265;47.576;19.270;2023-07-02T04:34:25;97901.47;;;19.80;95.50
71059;BME280;70265;47.576;19.270;2023-07-02T04:35:27;97911.34;;;19.79;95.30
71059;BME280;70265;47.576;19.270;2023-07-02T04:36:31;97908.69;;;19.79;95.02
71059;BME280;70265;47.576;19.270;2023-07-02T04:37:32;97897.69;;;19.76;94.69
71059;BME280;70265;47.576;19.270;2023-07-02T04:38:36;97914.69;;;19.87;94.78
71059;BME280;70265;47.576;19.270;2023-07-02T04:39:39;97903.44;;;19.85;94.73
71059;BME280;70265;47.576;19.270;2023-07-02T04:40:44;97894.66;;;19.84;95.11
71059;BME280;70265;47.576;19.270;2023-07-02T04:41:46;97911.56;;;19.90;95.68
71059;BME280;70265;47.576;19.270;2023-07-02T04:42:53;97908.31;;;19.88;96.06
71059;BME280;70265;47.576;19.270;2023-07-02T04:43:58;97912.03;;;19.87;95.33
71059;BME280;70265;47.576;19.270;2023-07-02T04:45:07;97921.72;;;19.93;94.62
71059;BME280;70265;47.576;19.270;2023-07-02T04:46:10;97920.66;;;19.94;95.37
71059;BME280;70265;47.576;19.270;2023-07-02T04:47:14;97924.94;;;19.95;94.96
71059;BME280;70265;47.576;19.270;2023-07-02T04:48:15;97921.34;;;20.01;96.04
71059;BME280;70265;47.576;19.270;2023-07-02T04:49:19;97919.50;;;20.01;96.92
71059;BME280;70265;47.576;19.270;2023-07-02T04:50:21;97923.31;;;20.05;96.72
71059;BME280;70265;47.576;19.270;2023-07-02T04:51:24;97905.97;;;19.91;94.86
71059;BME280;70265;47.576;19.270;2023-07-02T04:52:26;97911.44;;;19.85;94.69
71059;BME280;70265;47.576;19.270;2023-07-02T04:53:30;97916.97;;;19.95;95.19
71059;BME280;70265;47.576;19.270;2023-07-02T04:54:31;97907.47;;;19.99;94.48
71059;BME280;70265;47.576;19.270;2023-07-02T04:55:34;97921.41;;;20.17;93.46
71059;BME280;70265;47.576;19.270;2023-07-02T04:56:36;97919.09;;;20.21;93.17
71059;BME280;70265;47.576;19.270;2023-07-02T04:57:39;97925.13;;;20.16;91.24
71059;BME280;70265;47.576;19.270;2023-07-02T04:58:40;97927.88;;;20.21;90.72
71059;BME280;70265;47.576;19.270;2023-07-02T04:59:44;97926.03;;;20.22;90.27
71059;BME280;70265;47.576;19.270;2023-07-02T05:00:48;97933.69;;;20.18;90.71
71059;BME280;70265;47.576;19.270;2023-07-02T05:01:52;97906.38;;;20.11;90.33
71059;BME280;70265;47.576;19.270;2023-07-02T05:02:53;97930.22;;;20.18;88.91
71059;BME280;70265;47.576;19.270;2023-07-02T05:03:57;97926.44;;;20.14;87.73
71059;BME280;70265;47.576;19.270;2023-07-02T05:04:59;97928.16;;;20.08;87.58
71059;BME280;70265;47.576;19.270;2023-07-02T05:06:06;97924.94;;;20.06;87.00
71059;BME280;70265;47.576;19.270;2023-07-02T05:07:08;97923.66;;;20.09;86.99
71059;BME280;70265;47.576;19.270;2023-07-02T05:08:12;97930.53;;;20.21;86.15
71059;BME280;70265;47.576;19.270;2023-07-02T05:09:13;97929.03;;;20.25;85.97
71059;BME280;70265;47.576;19.270;2023-07-02T05:10:21;97927.66;;;20.23;86.19
71059;BME280;70265;47.576;19.270;2023-07-02T05:11:22;97934.72;;;20.29;85.19
71059;BME280;70265;47.576;19.270;2023-07-02T05:12:26;97931.59;;;20.32;85.56
71059;BME280;70265;47.576;19.270;2023-07-02T05:13:27;97934.69;;;20.41;84.72
71059;BME280;70265;47.576;19.270;2023-07-02T05:14:31;97938.19;;;20.41;84.58
71059;BME280;70265;47.576;19.270;2023-07-02T05:15:32;97931.59;;;20.60;86.79
71059;BME280;70265;47.576;19.270;2023-07-02T05:16:39;97937.63;;;20.56;84.45
71059;BME280;70265;47.576;19.270;2023-07-02T05:17:40;97934.06;;;20.50;83.57
71059;BME280;70265;47.576;19.270;2023-07-02T05:18:44;97939.00;;;20.58;83.94
71059;BME280;70265;47.576;19.270;2023-07-02T05:19:45;97933.44;;;20.60;82.82
71059;BME280;70265;47.576;19.270;2023-07-02T05:20:48;97947.84;;;20.75;82.82
71059;BME280;70265;47.576;19.270;2023-07-02T05:21:56;97951.41;;;20.81;82.43
71059;BME280;70265;47.576;19.270;2023-07-02T05:23:00;97951.16;;;20.82;82.38
71059;BME280;70265;47.576;19.270;2023-07-02T05:24:03;97948.69;;;20.93;82.07
71059;BME280;70265;47.576;19.270;2023-07-02T05:25:09;97940.53;;;20.99;82.27
71059;BME280;70265;47.576;19.270;2023-07-02T05:26:10;97937.06;;;20.99;81.63
71059;BME280;70265;47.576;19.270;2023-07-02T05:27:14;97942.56;;;21.09;81.59
71059;BME280;70265;47.576;19.270;2023-07-02T05:28:15;97930.19;;;21.03;81.32
71059;BME280;70265;47.576;19.270;2023-07-02T05:29:19;97930.38;;;21.13;80.88
71059;BME280;70265;47.576;19.270;2023-07-02T05:30:20;97944.94;;;21.22;81.03